sensor_id;sensor_type;location;lat;lon;timestamp;P1;durP1;ratioP1;P2;durP2;ratioP2
20456;SDS011;10387;51.102;6.848;2024-02-16T00:03:28;4.10;;;2.67;;
20456;SDS011;10387;51.102;6.848;2024-02-16T00:06:16;4.20;;;2.47;;
20456;SDS011;10387;51.102;6.848;2024-02-16T00:09:06;5.80;;;2.60;;
20456;SDS011;10387;51.102;6.848;2024-02-16T00:11:55;4.17;;;2.63;;
20456;SDS011;10387;51.102;6.848;2024-02-16T00:14:42;2.60;;;2.40;;
20456;SDS011;10387;51.102;6.848;2024-02-16T00:17:31;5.80;;;2.67;;
20456;SDS011;10387;51.102;6.848;2024-02-16T00:20:21;5.83;;;2.57;;
20456;SDS011;10387;51.102;6.848;2024-02-16T00:23:13;2.33;;;2.00;;
20456;SDS011;10387;51.102;6.848;2024-02-16T00:26:03;3.07;;;2.20;;
20456;SDS011;10387;51.102;6.848;2024-02-16T00:28:54;2.23;;;2.00;;
20456;SDS011;10387;51.102;6.848;2024-02-16T00:31:41;2.90;;;2.13;;
20456;SDS011;10387;51.102;6.848;2024-02-16T00:34:27;4.07;;;2.43;;
20456;SDS011;10387;51.102;6.848;2024-02-16T00:37:13;3.37;;;2.20;;
20456;SDS011;10387;51.102;6.848;2024-02-16T00:40:01;3.27;;;2.20;;
20456;SDS011;10387;51.102;6.848;2024-02-16T00:42:52;5.93;;;2.20;;
20456;SDS011;10387;51.102;6.848;2024-02-16T00:45:40;2.27;;;2.07;;
20456;SDS011;10387;51.102;6.848;2024-02-16T00:48:30;3.67;;;2.13;;
20456;SDS011;10387;51.102;6.848;2024-02-16T00:51:17;2.93;;;2.43;;
20456;SDS011;10387;51.102;6.848;2024-02-16T00:54:03;2.57;;;2.13;;
20456;SDS011;10387;51.102;6.848;2024-02-16T00:56:51;3.90;;;2.30;;
20456;SDS011;10387;51.102;6.848;2024-02-16T00:59:37;4.03;;;2.43;;
20456;SDS011;10387;51.102;6.848;2024-02-16T01:02:25;3.67;;;2.27;;
20456;SDS011;10387;51.102;6.848;2024-02-16T01:05:11;2.93;;;2.07;;
20456;SDS011;10387;51.102;6.848;2024-02-16T01:07:58;2.47;;;2.10;;
20456;SDS011;10387;51.102;6.848;2024-02-16T01:10:47;2.90;;;2.53;;
20456;SDS011;10387;51.102;6.848;2024-02-16T01:13:33;2.97;;;2.20;;
20456;SDS011;10387;51.102;6.848;2024-02-16T01:16:21;2.83;;;2.30;;
20456;SDS011;10387;51.102;6.848;2024-02-16T01:19:07;3.67;;;2.20;;
20456;SDS011;10387;51.102;6.848;2024-02-16T01:21:57;3.00;;;2.30;;
20456;SDS011;10387;51.102;6.848;2024-02-16T01:24:44;2.93;;;2.23;;
20456;SDS011;10387;51.102;6.848;2024-02-16T01:27:30;4.70;;;2.60;;
20456;SDS011;10387;51.102;6.848;2024-02-16T01:30:17;3.77;;;2.33;;
20456;SDS011;10387;51.102;6.848;2024-02-16T01:33:05;4.40;;;2.07;;
20456;SDS011;10387;51.102;6.848;2024-02-16T01:35:52;3.07;;;2.20;;
20456;SDS011;10387;51.102;6.848;2024-02-16T01:38:41;2.03;;;1.83;;
20456;SDS011;10387;51.102;6.848;2024-02-16T01:41:31;2.93;;;2.13;;
20456;SDS011;10387;51.102;6.848;2024-02-16T01:44:19;4.30;;;2.60;;
20456;SDS011;10387;51.102;6.848;2024-02-16T01:47:07;4.00;;;2.50;;
20456;SDS011;10387;51.102;6.848;2024-02-16T01:49:54;2.43;;;2.13;;
20456;SDS011;10387;51.102;6.848;2024-02-16T01:52:44;2.50;;;2.30;;
20456;SDS011;10387;51.102;6.848;2024-02-16T01:55:31;3.20;;;2.00;;
20456;SDS011;10387;51.102;6.848;2024-02-16T01:58:18;3.13;;;2.20;;
20456;SDS011;10387;51.102;6.848;2024-02-16T02:01:04;5.10;;;2.57;;
20456;SDS011;10387;51.102;6.848;2024-02-16T02:03:52;3.50;;;2.37;;
20456;SDS011;10387;51.102;6.848;2024-02-16T02:06:39;4.60;;;2.10;;
20456;SDS011;10387;51.102;6.848;2024-02-16T02:09:25;2.33;;;1.80;;
20456;SDS011;10387;51.102;6.848;2024-02-16T02:12:12;3.47;;;2.40;;
20456;SDS011;10387;51.102;6.848;2024-02-16T02:15:00;2.67;;;2.43;;
20456;SDS011;10387;51.102;6.848;2024-02-16T02:17:50;2.77;;;2.33;;
20456;SDS011;10387;51.102;6.848;2024-02-16T02:20:37;5.10;;;2.00;;
20456;SDS011;10387;51.102;6.848;2024-02-16T02:23:25;3.93;;;2.87;;
20456;SDS011;10387;51.102;6.848;2024-02-16T02:26:18;4.13;;;2.30;;
20456;SDS011;10387;51.102;6.848;2024-02-16T02:29:06;5.07;;;2.13;;
20456;SDS011;10387;51.102;6.848;2024-02-16T02:31:52;3.13;;;2.23;;
20456;SDS011;10387;51.102;6.848;2024-02-16T02:34:40;2.70;;;2.30;;
20456;SDS011;10387;51.102;6.848;2024-02-16T02:37:26;4.17;;;2.43;;
20456;SDS011;10387;51.102;6.848;2024-02-16T02:40:15;3.27;;;2.23;;
20456;SDS011;10387;51.102;6.848;2024-02-16T02:43:03;2.67;;;2.13;;
20456;SDS011;10387;51.102;6.848;2024-02-16T02:45:51;2.47;;;2.27;;
20456;SDS011;10387;51.102;6.848;2024-02-16T02:48:43;4.33;;;2.47;;
20456;SDS011;10387;51.102;6.848;2024-02-16T02:51:29;2.20;;;2.00;;
20456;SDS011;10387;51.102;6.848;2024-02-16T02:54:16;3.57;;;2.40;;
20456;SDS011;10387;51.102;6.848;2024-02-16T02:57:02;3.83;;;2.80;;
20456;SDS011;10387;51.102;6.848;2024-02-16T02:59:50;2.57;;;2.37;;
20456;SDS011;10387;51.102;6.848;2024-02-16T03:02:37;2.93;;;2.17;;
20456;SDS011;10387;51.102;6.848;2024-02-16T03:05:26;2.97;;;2.07;;
20456;SDS011;10387;51.102;6.848;2024-02-16T03:08:13;4.10;;;2.57;;
20456;SDS011;10387;51.102;6.848;2024-02-16T03:11:00;3.33;;;2.47;;
20456;SDS011;10387;51.102;6.848;2024-02-16T03:13:46;2.90;;;2.43;;
20456;SDS011;10387;51.102;6.848;2024-02-16T03:16:34;2.87;;;2.10;;
20456;SDS011;10387;51.102;6.848;2024-02-16T03:19:22;3.63;;;2.30;;
20456;SDS011;10387;51.102;6.848;2024-02-16T03:22:10;3.63;;;2.77;;
20456;SDS011;10387;51.102;6.848;2024-02-16T03:25:00;3.30;;;2.10;;
20456;SDS011;10387;51.102;6.848;2024-02-16T03:27:49;4.53;;;2.80;;
20456;SDS011;10387;51.102;6.848;2024-02-16T03:30:39;3.33;;;2.43;;
20456;SDS011;10387;51.102;6.848;2024-02-16T03:33:25;5.37;;;3.10;;
20456;SDS011;10387;51.102;6.848;2024-02-16T03:36:13;3.47;;;2.60;;
20456;SDS011;10387;51.102;6.848;2024-02-16T03:39:01;4.43;;;2.77;;
20456;SDS011;10387;51.102;6.848;2024-02-16T03:41:50;6.33;;;3.03;;
20456;SDS011;10387;51.102;6.848;2024-02-16T03:44:37;3.27;;;2.70;;
20456;SDS011;10387;51.102;6.848;2024-02-16T03:47:23;3.23;;;2.57;;
20456;SDS011;10387;51.102;6.848;2024-02-16T03:50:10;3.40;;;2.73;;
20456;SDS011;10387;51.102;6.848;2024-02-16T03:52:58;3.37;;;2.60;;
20456;SDS011;10387;51.102;6.848;2024-02-16T03:55:46;3.63;;;2.60;;
20456;SDS011;10387;51.102;6.848;2024-02-16T03:58:33;2.83;;;2.63;;
20456;SDS011;10387;51.102;6.848;2024-02-16T04:01:19;4.70;;;2.73;;
20456;SDS011;10387;51.102;6.848;2024-02-16T04:04:07;4.20;;;2.93;;
20456;SDS011;10387;51.102;6.848;2024-02-16T04:06:54;3.20;;;2.90;;
20456;SDS011;10387;51.102;6.848;2024-02-16T04:09:40;4.17;;;3.03;;
20456;SDS011;10387;51.102;6.848;2024-02-16T04:12:31;7.37;;;3.07;;
20456;SDS011;10387;51.102;6.848;2024-02-16T04:15:18;3.27;;;2.60;;
20456;SDS011;10387;51.102;6.848;2024-02-16T04:18:05;5.40;;;3.43;;
20456;SDS011;10387;51.102;6.848;2024-02-16T04:20:52;6.17;;;4.63;;
20456;SDS011;10387;51.102;6.848;2024-02-16T04:23:38;10.67;;;6.00;;
20456;SDS011;10387;51.102;6.848;2024-02-16T04:26:26;9.20;;;5.97;;
20456;SDS011;10387;51.102;6.848;2024-02-16T04:29:13;6.00;;;4.10;;
20456;SDS011;10387;51.102;6.848;2024-02-16T04:32:00;4.67;;;3.53;;
20456;SDS011;10387;51.102;6.848;2024-02-16T04:34:46;4.60;;;3.30;;
20456;SDS011;10387;51.102;6.848;2024-02-16T04:37:33;4.93;;;2.70;;
20456;SDS011;10387;51.102;6.848;2024-02-16T04:40:22;3.53;;;3.23;;
20456;SDS011;10387;51.102;6.848;2024-02-16T04:43:09;4.13;;;3.27;;
20456;SDS011;10387;51.102;6.848;2024-02-16T04:45:55;3.63;;;2.93;;
20456;SDS011;10387;51.102;6.848;2024-02-16T04:48:42;2.70;;;2.50;;
20456;SDS011;10387;51.102;6.848;2024-02-16T04:51:28;3.60;;;2.70;;
20456;SDS011;10387;51.102;6.848;2024-02-16T04:54:14;4.53;;;3.27;;
20456;SDS011;10387;51.102;6.848;2024-02-16T04:57:02;4.17;;;3.00;;
20456;SDS011;10387;51.102;6.848;2024-02-16T04:59:49;4.37;;;3.10;;
20456;SDS011;10387;51.102;6.848;2024-02-16T05:02:38;4.07;;;3.20;;
20456;SDS011;10387;51.102;6.848;2024-02-16T05:05:24;3.77;;;2.40;;
20456;SDS011;10387;51.102;6.848;2024-02-16T05:08:11;3.33;;;3.03;;
20456;SDS011;10387;51.102;6.848;2024-02-16T05:10:59;3.80;;;2.70;;
20456;SDS011;10387;51.102;6.848;2024-02-16T05:13:46;5.00;;;3.17;;
20456;SDS011;10387;51.102;6.848;2024-02-16T05:16:37;3.47;;;3.10;;
20456;SDS011;10387;51.102;6.848;2024-02-16T05:19:25;3.93;;;3.13;;
20456;SDS011;10387;51.102;6.848;2024-02-16T05:22:11;3.53;;;3.07;;
20456;SDS011;10387;51.102;6.848;2024-02-16T05:24:57;3.93;;;3.10;;
20456;SDS011;10387;51.102;6.848;2024-02-16T05:27:45;4.60;;;3.13;;
20456;SDS011;10387;51.102;6.848;2024-02-16T05:30:35;2.90;;;2.70;;
20456;SDS011;10387;51.102;6.848;2024-02-16T05:33:21;4.40;;;3.10;;
20456;SDS011;10387;51.102;6.848;2024-02-16T05:36:09;5.00;;;3.47;;
20456;SDS011;10387;51.102;6.848;2024-02-16T05:38:55;3.83;;;3.03;;
20456;SDS011;10387;51.102;6.848;2024-02-16T05:41:45;3.93;;;3.57;;
20456;SDS011;10387;51.102;6.848;2024-02-16T05:44:35;4.20;;;3.33;;
20456;SDS011;10387;51.102;6.848;2024-02-16T05:47:22;3.70;;;3.30;;
20456;SDS011;10387;51.102;6.848;2024-02-16T05:50:09;4.63;;;3.50;;
20456;SDS011;10387;51.102;6.848;2024-02-16T05:53:03;4.37;;;3.40;;
20456;SDS011;10387;51.102;6.848;2024-02-16T05:55:52;4.57;;;3.40;;
20456;SDS011;10387;51.102;6.848;2024-02-16T05:58:38;3.80;;;3.43;;
20456;SDS011;10387;51.102;6.848;2024-02-16T06:01:28;4.63;;;3.60;;
20456;SDS011;10387;51.102;6.848;2024-02-16T06:04:15;4.47;;;3.20;;
20456;SDS011;10387;51.102;6.848;2024-02-16T06:07:01;4.23;;;3.47;;
20456;SDS011;10387;51.102;6.848;2024-02-16T06:09:48;5.60;;;3.77;;
20456;SDS011;10387;51.102;6.848;2024-02-16T06:12:36;4.40;;;3.07;;
20456;SDS011;10387;51.102;6.848;2024-02-16T06:15:23;3.70;;;3.40;;
20456;SDS011;10387;51.102;6.848;2024-02-16T06:18:10;3.80;;;3.10;;
20456;SDS011;10387;51.102;6.848;2024-02-16T06:20:57;4.73;;;3.13;;
20456;SDS011;10387;51.102;6.848;2024-02-16T06:23:43;4.43;;;3.50;;
20456;SDS011;10387;51.102;6.848;2024-02-16T06:26:29;4.37;;;3.40;;
20456;SDS011;10387;51.102;6.848;2024-02-16T06:29:17;5.43;;;3.30;;
20456;SDS011;10387;51.102;6.848;2024-02-16T06:32:07;4.23;;;3.33;;
20456;SDS011;10387;51.102;6.848;2024-02-16T06:34:53;5.40;;;3.50;;
20456;SDS011;10387;51.102;6.848;2024-02-16T06:37:40;4.20;;;3.37;;
20456;SDS011;10387;51.102;6.848;2024-02-16T06:40:26;4.63;;;3.33;;
20456;SDS011;10387;51.102;6.848;2024-02-16T06:43:13;4.03;;;3.40;;
20456;SDS011;10387;51.102;6.848;2024-02-16T06:45:59;3.63;;;3.23;;
20456;SDS011;10387;51.102;6.848;2024-02-16T06:48:46;7.03;;;3.53;;
20456;SDS011;10387;51.102;6.848;2024-02-16T06:51:32;4.17;;;3.60;;
20456;SDS011;10387;51.102;6.848;2024-02-16T06:54:19;3.20;;;3.00;;
20456;SDS011;10387;51.102;6.848;2024-02-16T06:57:06;3.70;;;3.03;;
20456;SDS011;10387;51.102;6.848;2024-02-16T06:59:54;4.30;;;2.97;;
20456;SDS011;10387;51.102;6.848;2024-02-16T07:02:43;4.07;;;3.07;;
20456;SDS011;10387;51.102;6.848;2024-02-16T07:05:30;6.57;;;3.80;;
20456;SDS011;10387;51.102;6.848;2024-02-16T07:08:18;4.83;;;3.30;;
20456;SDS011;10387;51.102;6.848;2024-02-16T07:11:07;5.80;;;3.03;;
20456;SDS011;10387;51.102;6.848;2024-02-16T07:13:53;4.47;;;3.27;;
20456;SDS011;10387;51.102;6.848;2024-02-16T07:16:41;3.77;;;3.20;;
20456;SDS011;10387;51.102;6.848;2024-02-16T07:19:30;3.77;;;3.00;;
20456;SDS011;10387;51.102;6.848;2024-02-16T07:22:17;3.80;;;3.13;;
20456;SDS011;10387;51.102;6.848;2024-02-16T07:25:04;5.60;;;2.80;;
20456;SDS011;10387;51.102;6.848;2024-02-16T07:27:51;3.30;;;2.87;;
20456;SDS011;10387;51.102;6.848;2024-02-16T07:30:39;3.90;;;2.87;;
20456;SDS011;10387;51.102;6.848;2024-02-16T07:33:25;4.37;;;2.93;;
20456;SDS011;10387;51.102;6.848;2024-02-16T07:36:14;3.47;;;2.70;;
20456;SDS011;10387;51.102;6.848;2024-02-16T07:39:04;3.63;;;3.10;;
20456;SDS011;10387;51.102;6.848;2024-02-16T07:41:50;5.40;;;3.20;;
20456;SDS011;10387;51.102;6.848;2024-02-16T07:44:38;4.70;;;2.97;;
20456;SDS011;10387;51.102;6.848;2024-02-16T07:47:25;4.43;;;3.37;;
20456;SDS011;10387;51.102;6.848;2024-02-16T07:50:17;4.37;;;3.10;;
20456;SDS011;10387;51.102;6.848;2024-02-16T07:53:05;4.63;;;3.10;;
20456;SDS011;10387;51.102;6.848;2024-02-16T07:55:51;4.30;;;2.80;;
20456;SDS011;10387;51.102;6.848;2024-02-16T07:58:38;3.77;;;2.80;;
20456;SDS011;10387;51.102;6.848;2024-02-16T08:01:28;5.47;;;3.17;;
20456;SDS011;10387;51.102;6.848;2024-02-16T08:04:16;4.23;;;2.83;;
20456;SDS011;10387;51.102;6.848;2024-02-16T08:07:02;6.83;;;2.90;;
20456;SDS011;10387;51.102;6.848;2024-02-16T08:09:50;5.30;;;2.93;;
20456;SDS011;10387;51.102;6.848;2024-02-16T08:12:38;2.93;;;2.60;;
20456;SDS011;10387;51.102;6.848;2024-02-16T08:15:26;3.63;;;3.20;;
20456;SDS011;10387;51.102;6.848;2024-02-16T08:18:13;5.20;;;3.07;;
20456;SDS011;10387;51.102;6.848;2024-02-16T08:21:00;5.17;;;2.80;;
20456;SDS011;10387;51.102;6.848;2024-02-16T08:23:46;4.47;;;3.20;;
20456;SDS011;10387;51.102;6.848;2024-02-16T08:26:33;4.83;;;3.10;;
20456;SDS011;10387;51.102;6.848;2024-02-16T08:29:19;4.87;;;3.00;;
20456;SDS011;10387;51.102;6.848;2024-02-16T08:32:06;4.27;;;2.70;;
20456;SDS011;10387;51.102;6.848;2024-02-16T08:34:55;4.67;;;2.97;;
20456;SDS011;10387;51.102;6.848;2024-02-16T08:37:41;5.57;;;2.97;;
20456;SDS011;10387;51.102;6.848;2024-02-16T08:40:28;4.13;;;3.13;;
20456;SDS011;10387;51.102;6.848;2024-02-16T08:43:15;5.17;;;3.23;;
20456;SDS011;10387;51.102;6.848;2024-02-16T08:46:02;4.30;;;3.57;;
20456;SDS011;10387;51.102;6.848;2024-02-16T08:48:49;4.77;;;3.40;;
20456;SDS011;10387;51.102;6.848;2024-02-16T08:51:43;3.37;;;2.97;;
20456;SDS011;10387;51.102;6.848;2024-02-16T08:54:29;4.70;;;2.97;;
20456;SDS011;10387;51.102;6.848;2024-02-16T08:57:16;5.43;;;3.00;;
20456;SDS011;10387;51.102;6.848;2024-02-16T09:00:02;6.93;;;3.33;;
20456;SDS011;10387;51.102;6.848;2024-02-16T09:02:49;4.77;;;3.23;;
20456;SDS011;10387;51.102;6.848;2024-02-16T09:05:37;4.43;;;3.17;;
20456;SDS011;10387;51.102;6.848;2024-02-16T09:08:23;3.90;;;2.80;;
20456;SDS011;10387;51.102;6.848;2024-02-16T09:11:10;3.93;;;2.80;;
20456;SDS011;10387;51.102;6.848;2024-02-16T09:13:56;5.13;;;3.43;;
20456;SDS011;10387;51.102;6.848;2024-02-16T09:16:48;5.00;;;3.27;;
20456;SDS011;10387;51.102;6.848;2024-02-16T09:19:36;3.67;;;2.70;;
20456;SDS011;10387;51.102;6.848;2024-02-16T09:22:23;5.50;;;3.33;;
20456;SDS011;10387;51.102;6.848;2024-02-16T09:25:09;3.10;;;2.80;;
20456;SDS011;10387;51.102;6.848;2024-02-16T09:27:56;3.23;;;2.93;;
20456;SDS011;10387;51.102;6.848;2024-02-16T09:30:44;6.27;;;3.30;;
20456;SDS011;10387;51.102;6.848;2024-02-16T09:33:31;5.47;;;3.63;;
20456;SDS011;10387;51.102;6.848;2024-02-16T09:36:17;6.13;;;3.73;;
20456;SDS011;10387;51.102;6.848;2024-02-16T09:39:04;6.27;;;3.50;;
20456;SDS011;10387;51.102;6.848;2024-02-16T09:41:52;4.37;;;3.40;;
20456;SDS011;10387;51.102;6.848;2024-02-16T09:44:39;5.20;;;3.13;;
20456;SDS011;10387;51.102;6.848;2024-02-16T09:47:27;5.43;;;3.47;;
20456;SDS011;10387;51.102;6.848;2024-02-16T09:50:21;4.07;;;3.30;;
20456;SDS011;10387;51.102;6.848;2024-02-16T09:53:13;7.17;;;3.70;;
20456;SDS011;10387;51.102;6.848;2024-02-16T09:56:04;5.53;;;3.30;;
20456;SDS011;10387;51.102;6.848;2024-02-16T09:58:58;4.07;;;3.00;;
20456;SDS011;10387;51.102;6.848;2024-02-16T10:01:48;4.87;;;3.40;;
20456;SDS011;10387;51.102;6.848;2024-02-16T10:04:52;4.67;;;3.90;;
20456;SDS011;10387;51.102;6.848;2024-02-16T10:07:39;5.73;;;3.40;;
20456;SDS011;10387;51.102;6.848;2024-02-16T10:10:27;5.70;;;3.50;;
20456;SDS011;10387;51.102;6.848;2024-02-16T10:13:21;4.33;;;3.50;;
20456;SDS011;10387;51.102;6.848;2024-02-16T10:16:11;6.20;;;3.27;;
20456;SDS011;10387;51.102;6.848;2024-02-16T10:19:05;5.10;;;3.40;;
20456;SDS011;10387;51.102;6.848;2024-02-16T10:21:53;5.00;;;3.47;;
20456;SDS011;10387;51.102;6.848;2024-02-16T10:24:39;4.27;;;3.23;;
20456;SDS011;10387;51.102;6.848;2024-02-16T10:27:28;6.57;;;3.53;;
20456;SDS011;10387;51.102;6.848;2024-02-16T10:30:14;4.97;;;3.47;;
20456;SDS011;10387;51.102;6.848;2024-02-16T10:33:01;4.43;;;3.27;;
20456;SDS011;10387;51.102;6.848;2024-02-16T10:35:48;5.97;;;3.90;;
20456;SDS011;10387;51.102;6.848;2024-02-16T10:38:36;4.23;;;3.50;;
20456;SDS011;10387;51.102;6.848;2024-02-16T10:41:27;6.57;;;3.27;;
20456;SDS011;10387;51.102;6.848;2024-02-16T10:44:14;6.33;;;3.83;;
20456;SDS011;10387;51.102;6.848;2024-02-16T10:47:00;4.40;;;3.50;;
20456;SDS011;10387;51.102;6.848;2024-02-16T10:49:48;5.03;;;3.80;;
20456;SDS011;10387;51.102;6.848;2024-02-16T10:52:35;7.60;;;5.60;;
20456;SDS011;10387;51.102;6.848;2024-02-16T10:55:22;6.23;;;3.60;;
20456;SDS011;10387;51.102;6.848;2024-02-16T10:58:10;5.07;;;4.10;;
20456;SDS011;10387;51.102;6.848;2024-02-16T11:01:26;4.30;;;3.90;;
20456;SDS011;10387;51.102;6.848;2024-02-16T11:04:15;5.57;;;3.57;;
20456;SDS011;10387;51.102;6.848;2024-02-16T11:07:09;4.93;;;3.43;;
20456;SDS011;10387;51.102;6.848;2024-02-16T11:09:59;5.50;;;3.73;;
20456;SDS011;10387;51.102;6.848;2024-02-16T11:12:47;4.37;;;3.37;;
20456;SDS011;10387;51.102;6.848;2024-02-16T11:15:36;5.20;;;3.37;;
20456;SDS011;10387;51.102;6.848;2024-02-16T11:18:30;6.90;;;3.80;;
20456;SDS011;10387;51.102;6.848;2024-02-16T11:21:17;7.10;;;4.10;;
20456;SDS011;10387;51.102;6.848;2024-02-16T11:24:07;4.80;;;3.40;;
20456;SDS011;10387;51.102;6.848;2024-02-16T11:27:02;5.50;;;3.40;;
20456;SDS011;10387;51.102;6.848;2024-02-16T11:29:49;5.53;;;3.93;;
20456;SDS011;10387;51.102;6.848;2024-02-16T11:32:36;5.50;;;4.13;;
20456;SDS011;10387;51.102;6.848;2024-02-16T11:35:23;4.87;;;3.87;;
20456;SDS011;10387;51.102;6.848;2024-02-16T11:38:12;5.73;;;4.00;;
20456;SDS011;10387;51.102;6.848;2024-02-16T11:43:58;6.73;;;4.10;;
20456;SDS011;10387;51.102;6.848;2024-02-16T11:47:03;6.13;;;4.00;;
20456;SDS011;10387;51.102;6.848;2024-02-16T11:50:05;5.53;;;3.87;;
20456;SDS011;10387;51.102;6.848;2024-02-16T11:53:00;5.13;;;4.30;;
20456;SDS011;10387;51.102;6.848;2024-02-16T11:56:21;6.10;;;3.80;;
20456;SDS011;10387;51.102;6.848;2024-02-16T11:59:22;5.83;;;4.30;;
20456;SDS011;10387;51.102;6.848;2024-02-16T12:02:26;6.77;;;4.27;;
20456;SDS011;10387;51.102;6.848;2024-02-16T12:05:16;7.03;;;4.20;;
20456;SDS011;10387;51.102;6.848;2024-02-16T12:08:09;5.57;;;4.60;;
20456;SDS011;10387;51.102;6.848;2024-02-16T12:14:29;5.97;;;4.80;;
20456;SDS011;10387;51.102;6.848;2024-02-16T12:17:17;6.00;;;4.87;;
20456;SDS011;10387;51.102;6.848;2024-02-16T12:20:10;6.27;;;4.90;;
20456;SDS011;10387;51.102;6.848;2024-02-16T12:23:21;6.50;;;5.10;;
20456;SDS011;10387;51.102;6.848;2024-02-16T12:26:18;7.07;;;5.00;;
20456;SDS011;10387;51.102;6.848;2024-02-16T12:32:04;8.67;;;5.20;;
20456;SDS011;10387;51.102;6.848;2024-02-16T12:35:09;7.17;;;5.07;;
20456;SDS011;10387;51.102;6.848;2024-02-16T12:38:20;9.57;;;5.23;;
20456;SDS011;10387;51.102;6.848;2024-02-16T12:44:44;7.97;;;5.80;;
20456;SDS011;10387;51.102;6.848;2024-02-16T12:47:42;10.67;;;6.43;;
20456;SDS011;10387;51.102;6.848;2024-02-16T12:50:32;8.03;;;5.53;;
20456;SDS011;10387;51.102;6.848;2024-02-16T12:53:28;8.97;;;5.93;;
20456;SDS011;10387;51.102;6.848;2024-02-16T12:56:24;9.57;;;5.47;;
20456;SDS011;10387;51.102;6.848;2024-02-16T12:59:21;10.40;;;6.50;;
20456;SDS011;10387;51.102;6.848;2024-02-16T13:02:22;10.60;;;6.90;;
20456;SDS011;10387;51.102;6.848;2024-02-16T13:05:17;10.80;;;6.43;;
20456;SDS011;10387;51.102;6.848;2024-02-16T13:08:11;9.27;;;6.73;;
20456;SDS011;10387;51.102;6.848;2024-02-16T13:11:08;8.93;;;6.27;;
20456;SDS011;10387;51.102;6.848;2024-02-16T13:19:45;10.57;;;6.83;;
20456;SDS011;10387;51.102;6.848;2024-02-16T13:22:38;6.90;;;6.20;;
20456;SDS011;10387;51.102;6.848;2024-02-16T13:25:26;7.83;;;5.87;;
20456;SDS011;10387;51.102;6.848;2024-02-16T13:28:25;8.93;;;5.73;;
20456;SDS011;10387;51.102;6.848;2024-02-16T13:34:23;8.77;;;5.83;;
20456;SDS011;10387;51.102;6.848;2024-02-16T13:37:28;7.97;;;5.87;;
20456;SDS011;10387;51.102;6.848;2024-02-16T13:40:25;7.70;;;6.50;;
20456;SDS011;10387;51.102;6.848;2024-02-16T13:43:37;8.87;;;6.87;;
20456;SDS011;10387;51.102;6.848;2024-02-16T13:46:41;9.43;;;6.30;;
20456;SDS011;10387;51.102;6.848;2024-02-16T13:49:48;9.47;;;6.60;;
20456;SDS011;10387;51.102;6.848;2024-02-16T13:52:53;8.07;;;6.77;;
20456;SDS011;10387;51.102;6.848;2024-02-16T13:55:45;9.83;;;7.37;;
20456;SDS011;10387;51.102;6.848;2024-02-16T13:58:31;9.70;;;6.97;;
20456;SDS011;10387;51.102;6.848;2024-02-16T14:01:20;11.77;;;7.77;;
20456;SDS011;10387;51.102;6.848;2024-02-16T14:04:09;9.10;;;6.90;;
20456;SDS011;10387;51.102;6.848;2024-02-16T14:06:58;8.77;;;7.87;;
20456;SDS011;10387;51.102;6.848;2024-02-16T14:09:45;9.00;;;7.27;;
20456;SDS011;10387;51.102;6.848;2024-02-16T14:12:34;10.83;;;7.30;;
20456;SDS011;10387;51.102;6.848;2024-02-16T14:18:10;7.00;;;6.30;;
20456;SDS011;10387;51.102;6.848;2024-02-16T14:20:58;10.20;;;7.30;;
20456;SDS011;10387;51.102;6.848;2024-02-16T14:23:46;7.93;;;7.13;;
20456;SDS011;10387;51.102;6.848;2024-02-16T14:26:33;8.77;;;6.93;;
20456;SDS011;10387;51.102;6.848;2024-02-16T14:29:24;10.27;;;7.77;;
20456;SDS011;10387;51.102;6.848;2024-02-16T14:32:11;13.17;;;7.73;;
20456;SDS011;10387;51.102;6.848;2024-02-16T14:35:04;8.33;;;7.50;;
20456;SDS011;10387;51.102;6.848;2024-02-16T14:37:51;9.77;;;7.90;;
20456;SDS011;10387;51.102;6.848;2024-02-16T14:40:48;10.20;;;8.03;;
20456;SDS011;10387;51.102;6.848;2024-02-16T14:44:05;10.93;;;8.80;;
20456;SDS011;10387;51.102;6.848;2024-02-16T14:47:00;10.27;;;8.50;;
20456;SDS011;10387;51.102;6.848;2024-02-16T14:53:16;11.37;;;9.10;;
20456;SDS011;10387;51.102;6.848;2024-02-16T14:56:24;12.63;;;10.27;;
20456;SDS011;10387;51.102;6.848;2024-02-16T15:10:20;11.03;;;9.03;;
20456;SDS011;10387;51.102;6.848;2024-02-16T15:13:09;9.53;;;8.37;;
20456;SDS011;10387;51.102;6.848;2024-02-16T15:15:56;9.37;;;8.43;;
20456;SDS011;10387;51.102;6.848;2024-02-16T15:18:46;9.13;;;8.23;;
20456;SDS011;10387;51.102;6.848;2024-02-16T15:21:35;9.77;;;7.77;;
20456;SDS011;10387;51.102;6.848;2024-02-16T15:27:48;8.90;;;7.60;;
20456;SDS011;10387;51.102;6.848;2024-02-16T15:30:38;7.90;;;7.10;;
20456;SDS011;10387;51.102;6.848;2024-02-16T15:33:25;8.40;;;7.60;;
20456;SDS011;10387;51.102;6.848;2024-02-16T15:36:12;10.90;;;8.53;;
20456;SDS011;10387;51.102;6.848;2024-02-16T15:38:58;9.53;;;8.23;;
20456;SDS011;10387;51.102;6.848;2024-02-16T15:41:47;8.40;;;7.53;;
20456;SDS011;10387;51.102;6.848;2024-02-16T15:44:45;8.53;;;7.57;;
20456;SDS011;10387;51.102;6.848;2024-02-16T15:47:31;7.93;;;7.13;;
20456;SDS011;10387;51.102;6.848;2024-02-16T15:50:18;8.67;;;7.03;;
20456;SDS011;10387;51.102;6.848;2024-02-16T15:53:05;7.07;;;6.37;;
20456;SDS011;10387;51.102;6.848;2024-02-16T15:59:01;8.27;;;7.13;;
20456;SDS011;10387;51.102;6.848;2024-02-16T16:01:48;8.73;;;6.43;;
20456;SDS011;10387;51.102;6.848;2024-02-16T16:04:35;7.57;;;6.73;;
20456;SDS011;10387;51.102;6.848;2024-02-16T16:07:22;9.80;;;7.17;;
20456;SDS011;10387;51.102;6.848;2024-02-16T16:10:10;8.60;;;7.30;;
20456;SDS011;10387;51.102;6.848;2024-02-16T16:12:57;10.77;;;8.60;;
20456;SDS011;10387;51.102;6.848;2024-02-16T16:15:44;12.17;;;8.53;;
20456;SDS011;10387;51.102;6.848;2024-02-16T16:18:31;12.17;;;8.93;;
20456;SDS011;10387;51.102;6.848;2024-02-16T16:21:21;11.87;;;9.63;;
20456;SDS011;10387;51.102;6.848;2024-02-16T16:24:08;11.37;;;8.90;;
20456;SDS011;10387;51.102;6.848;2024-02-16T16:26:59;10.07;;;8.77;;
20456;SDS011;10387;51.102;6.848;2024-02-16T16:29:51;10.70;;;8.73;;
20456;SDS011;10387;51.102;6.848;2024-02-16T16:32:39;12.37;;;9.93;;
20456;SDS011;10387;51.102;6.848;2024-02-16T16:35:26;11.77;;;9.73;;
20456;SDS011;10387;51.102;6.848;2024-02-16T16:38:13;11.63;;;9.37;;
20456;SDS011;10387;51.102;6.848;2024-02-16T16:41:00;12.20;;;10.10;;
20456;SDS011;10387;51.102;6.848;2024-02-16T16:43:56;11.27;;;9.07;;
20456;SDS011;10387;51.102;6.848;2024-02-16T16:46:42;12.13;;;10.10;;
20456;SDS011;10387;51.102;6.848;2024-02-16T16:49:29;11.77;;;9.60;;
20456;SDS011;10387;51.102;6.848;2024-02-16T16:52:16;13.27;;;10.57;;
20456;SDS011;10387;51.102;6.848;2024-02-16T16:55:03;11.57;;;10.37;;
20456;SDS011;10387;51.102;6.848;2024-02-16T16:57:55;12.20;;;10.90;;
20456;SDS011;10387;51.102;6.848;2024-02-16T17:00:41;13.57;;;11.00;;
20456;SDS011;10387;51.102;6.848;2024-02-16T17:03:31;13.47;;;10.07;;
20456;SDS011;10387;51.102;6.848;2024-02-16T17:06:23;12.57;;;10.33;;
20456;SDS011;10387;51.102;6.848;2024-02-16T17:09:14;12.53;;;10.27;;
20456;SDS011;10387;51.102;6.848;2024-02-16T17:12:02;12.67;;;11.23;;
20456;SDS011;10387;51.102;6.848;2024-02-16T17:14:52;14.03;;;10.67;;
20456;SDS011;10387;51.102;6.848;2024-02-16T17:17:43;12.37;;;9.77;;
20456;SDS011;10387;51.102;6.848;2024-02-16T17:20:48;12.60;;;10.47;;
20456;SDS011;10387;51.102;6.848;2024-02-16T17:23:38;11.00;;;9.30;;
20456;SDS011;10387;51.102;6.848;2024-02-16T17:26:36;12.10;;;8.93;;
20456;SDS011;10387;51.102;6.848;2024-02-16T17:29:43;10.23;;;9.13;;
20456;SDS011;10387;51.102;6.848;2024-02-16T17:32:37;9.97;;;8.87;;
20456;SDS011;10387;51.102;6.848;2024-02-16T17:35:25;10.53;;;9.10;;
20456;SDS011;10387;51.102;6.848;2024-02-16T17:38:21;10.10;;;8.13;;
20456;SDS011;10387;51.102;6.848;2024-02-16T17:41:11;9.10;;;8.20;;
20456;SDS011;10387;51.102;6.848;2024-02-16T17:44:01;11.93;;;8.97;;
20456;SDS011;10387;51.102;6.848;2024-02-16T17:46:48;10.93;;;9.37;;